KDKR

Houston County Airport

Crockett, Texas, USA
METAR KDKR 210130Z AUTO 09006KT 10SM VCTS 25/22 A2997 RMK AO2 LTG DSNT ALQDS
Observed Flight Rules
Aug-21 @ 01:30 UTC (22 hours ago)
Wind Visibility Conditions
90° at 6 knots 10 miles
  • Area Thunderstorm
Temperatures Readings
Current 25°C / 77°F
Dewpoint 22°C / 72°F
Humidity 83%
Altimeter 29.97" Hg
Pressure 1015 hPa
Elevation 106
METAR KDKR 210130Z AUTO 09006KT 10SM VCTS 25/22 A2997 RMK AO2 LTG DSNT ALQDS
Observed Flight Rules
Aug-21 @ 01:30 UTC
(22 hours ago)
Wind Visibility
90° at 6 knots 10 miles
Conditions
  • Area Thunderstorm
Temperature Dewpoint
25°C / 77°F 22°C / 72°F
Humidity Altimeter Pressure
83% 29.97" Hg 1015 hPa